• Join FlightAware (Why Join?)
  • Login
  • US Flag 
07:55AM EDT


 

Airport Tracker/Info


-or-


 

Live Flight TrackerFlight Track Log ✈ FFT920 ✈ 19-Jul-2013 ✈ KRDU - KTTN

Flight Track Log - Related Links

Times and Time Zones

All times are in EDT time to prevent confusion due to time zone crossing. See the FFT920 flight status page for this flight to view local times or setup timezone preferences in your user account.

Time Position Orientation Groundspeed Altitude Reporting Facility
EDT Latitude Longitude Course Direction KTS MPH feet Rate Location/Type
08:44AM 35.8630 -78.8150 223° Southwest 153 176 1,700  Level FlightAware
08:44AM 35.8520 -78.8270 221° Southwest 169 194 2,100 960 Climbing FlightAware
08:45AM 35.8390 -78.8430 225° Southwest 200 230 2,600 2,580 Climbing FlightAware
08:45AM 35.8120 -78.8790 227° Southwest 218 251 4,500 3,660 Climbing FlightAware
08:45AM 35.8090 -78.8910 253° West 220 253 5,000 2,940 Climbing FlightAware
08:46AM 35.8440 -78.9260 321° Northwest 255 293 7,200 2,760 Climbing FlightAware
08:46AM 35.8580 -78.9210 16° North 272 313 7,600 2,100 Climbing FlightAware
08:47AM 35.8750 -78.9110 25° Northeast 286 329 8,200 2,700 Climbing FlightAware
08:47AM 35.9080 -78.8920 25° Northeast 293 337 9,500 2,400 Climbing FlightAware
08:48AM 35.9550 -78.8630 27° Northeast 322 371 10,800 1,800 Climbing FlightAware
08:48AM 36.0180 -78.8260 25° Northeast 355 409 12,200 2,400 Climbing FlightAware
08:49AM 36.0910 -78.7840 25° Northeast 363 418 14,300 2,700 Climbing FlightAware
08:50AM 36.1520 -78.7480 25° Northeast 376 433 15,800 2,280 Climbing FlightAware
08:50AM 36.2230 -78.7060 26° Northeast 384 442 17,500 2,280 Climbing FlightAware
08:51AM 36.2910 -78.6650 26° Northeast 393 452 19,100 1,920 Climbing FlightAware
08:52AM 36.3650 -78.6220 25° Northeast 402 463 20,600 1,980 Climbing FlightAware
08:53AM 36.4740 -78.5700 21° North 411 473 22,700 2,040 Climbing FlightAware
08:54AM 36.5510 -78.5420 16° North 418 481 23,900 1,800 Climbing FlightAware
08:54AM 36.6270 -78.5150 16° North 25,100 1,800 Climbing FlightAware
08:56AM 36.8150 -78.4160 23° Northeast 419 482 28,700 1,380 Climbing FlightAware
08:57AM 36.8660 -78.3750 33° Northeast 419 482 28,700  Level FlightAware
08:58AM 36.9340 -78.3200 33° Northeast 419 482 28,700 1,500 Level FlightAware
08:58AM 37.0360 -78.2370 33° Northeast 403 464 31,000 1,800 Climbing FlightAware
08:59AM 37.0900 -78.1920 34° Northeast 404 465 31,000  Level FlightAware
09:00AM 37.1580 -78.1370 33° Northeast 404 465 31,000  Level FlightAware
09:00AM 37.2150 -78.0900 33° Northeast 405 466 31,000  Level FlightAware
09:01AM 37.3090 -78.0130 33° Northeast 405 466 31,000  Level FlightAware
09:03AM 37.4040 -77.9340 33° Northeast 405 466 31,000  Level FlightAware
09:03AM 37.4630 -77.8830 34° Northeast 405 466 31,000  Level FlightAware
09:04AM 37.5650 -77.7960 34° Northeast 405 466 31,000  Level FlightAware
09:05AM 37.6290 -77.7380 36° Northeast 406 467 31,000  Level FlightAware
09:05AM 37.6870 -77.6850 36° Northeast 406 467 31,000  Level FlightAware
09:06AM 37.7440 -77.6330 36° Northeast 406 467 31,000  Level FlightAware
09:07AM 37.7830 -77.5980 35° Northeast 406 467 31,000  Level FlightAware
09:10AM 38.1130 -77.2960 36° Northeast 407 468 31,000  Level FlightAware
09:11AM 38.1810 -77.2330 36° Northeast 400 460 31,000  Level FlightAware
09:12AM 38.2690 -77.1530 36° Northeast 407 468 31,000  Level FlightAware
09:12AM 38.3300 -77.0960 36° Northeast 407 468 31,000 -120 Level FlightAware
09:13AM 38.3980 -77.0320 36° Northeast 407 468 30,900 -960 Descending FlightAware
09:14AM 38.4570 -76.9780 36° Northeast 404 465 29,700 -1,680 Descending FlightAware
09:14AM 38.5000 -76.9370 37° Northeast 407 468 28,700 -1,920 Descending FlightAware
09:15AM 38.5700 -76.8730 36° Northeast 423 487 27,000 -2,640 Descending FlightAware
09:16AM 38.6580 -76.7900 36° Northeast 417 480 24,900 -2,460 Descending FlightAware
09:16AM 38.6970 -76.7450 42° Northeast 408 470 24,100 -1,680 Descending FlightAware
09:17AM 38.7230 -76.6620 68° East 398 458 23,000 -1,740 Descending FlightAware
09:18AM 38.7450 -76.5580 75° East 389 448 21,700 -1,740 Descending FlightAware
09:18AM 38.7630 -76.4690 75° East 383 441 20,600 -1,680 Descending FlightAware
09:19AM 38.7830 -76.3750 75° East 376 433 19,400 -1,680 Descending FlightAware
09:20AM 38.7990 -76.2990 75° East 372 428 18,400 -1,320 Descending FlightAware
09:20AM 38.8090 -76.2500 75° East 368 423 17,800 -1,380 Descending FlightAware
09:21AM 38.8280 -76.1580 75° East 360 414 16,600 -780 Descending FlightAware
09:24AM 38.9240 -75.8080 70° East 351 404 15,000 -540 Descending FlightAware
09:24AM 38.9460 -75.7880 35° Northeast 350 403 15,000  Level FlightAware
09:25AM 39.0120 -75.7440 27° Northeast 347 399 15,000 -180 Level FlightAware
09:26AM 39.0770 -75.7220 15° North 348 400 14,800 -900 Descending FlightAware
09:26AM 39.1410 -75.7010 14° North 337 388 13,800 -1,560 Descending FlightAware
09:27AM 39.2100 -75.6780 14° North 332 382 12,600 -1,320 Descending FlightAware
09:28AM 39.2710 -75.6580 14° North 318 366 12,000 -540 Descending FlightAware
09:28AM 39.3200 -75.6220 30° Northeast 310 357 11,900  Descending FlightAware
09:29AM 39.3690 -75.5800 34° Northeast 313 360 12,000  Climbing FlightAware
09:30AM 39.4260 -75.5320 33° Northeast 345 397 11,900  Descending FlightAware
09:31AM 39.4790 -75.4880 33° Northeast 346 398 12,000 -120 Climbing FlightAware
09:31AM 39.5430 -75.4350 33° Northeast 346 398 11,800 -600 Descending FlightAware
09:32AM 39.5940 -75.3920 33° Northeast 342 394 11,200 -900 Descending FlightAware
09:33AM 39.6590 -75.3380 33° Northeast 342 394 10,400 -720 Descending FlightAware
09:34AM 39.7150 -75.2910 33° Northeast 338 389 10,000 -420 Descending FlightAware
09:34AM 39.7360 -75.2730 33° Northeast 339 390 10,000 -180 Level FlightAware
09:34AM 39.7750 -75.2330 38° Northeast 337 388 9,900 -180 Descending FlightAware
09:35AM 39.8050 -75.2000 40° Northeast 311 358 9,900 -840 Level FlightAware
09:35AM 39.8370 -75.1640 41° Northeast 302 348 9,300 -1,500 Descending FlightAware
09:36AM 39.8660 -75.1310 41° Northeast 299 344 8,500 -1,920 Descending FlightAware
09:36AM 39.8900 -75.1050 40° Northeast 299 344 7,700 -2,040 Descending FlightAware
09:36AM 39.9100 -75.0820 41° Northeast 301 346 7,100 -1,680 Descending FlightAware
09:37AM 39.9340 -75.0540 42° Northeast 295 339 6,500 -1,200 Descending FlightAware
09:37AM 39.9540 -75.0320 40° Northeast 292 336 6,100 -540 Descending FlightAware
09:38AM 39.9820 -75.0000 41° Northeast 296 341 6,000 -120 Descending FlightAware
09:38AM 40.0190 -74.9590 40° Northeast 294 338 6,000  Level FlightAware
09:38AM 40.0400 -74.9350 41° Northeast 293 337 6,000 -180 Level FlightAware
09:39AM 40.0640 -74.9080 41° Northeast 292 336 5,900 -780 Descending FlightAware
09:39AM 40.0890 -74.8800 41° Northeast 290 334 5,400 -1,500 Descending FlightAware
09:40AM 40.1130 -74.8520 42° Northeast 290 334 4,700 -1,680 Descending FlightAware
09:40AM 40.1330 -74.8290 41° Northeast 288 331 4,200 -1,680 Descending FlightAware
09:40AM 40.1570 -74.8020 41° Northeast 285 328 3,500 -1,440 Descending FlightAware
09:41AM 40.1830 -74.7720 41° Northeast 278 320 3,000 -720 Descending FlightAware
09:41AM 40.2050 -74.7470 41° Northeast 252 290 2,900 -300 Descending FlightAware
09:42AM 40.2230 -74.7220 47° Northeast 229 264 2,800 -360 Descending FlightAware
09:42AM 40.2360 -74.7040 47° Northeast 216 249 2,600 -480 Descending FlightAware
09:42AM 40.2430 -74.6930 50° Northeast 200 230 2,500 -480 Descending FlightAware